createdAt,value
2023-10-10T00:04:45.898Z,16.70
2023-10-10T00:09:51.881Z,16.80
2023-10-10T00:14:58.581Z,16.80
2023-10-10T00:20:17.485Z,16.70
2023-10-10T00:25:24.678Z,16.70
2023-10-10T00:30:35.741Z,16.70
2023-10-10T00:35:43.874Z,16.60
2023-10-10T00:40:48.721Z,16.60
2023-10-10T00:45:54.698Z,16.60
2023-10-10T00:51:12.042Z,16.60
2023-10-10T00:56:16.633Z,16.50
2023-10-10T01:01:20.992Z,16.50
2023-10-10T01:06:27.297Z,16.50
2023-10-10T01:11:31.861Z,16.40
2023-10-10T01:16:35.606Z,16.50
2023-10-10T01:21:45.213Z,16.40
2023-10-10T01:26:52.259Z,16.40
2023-10-10T01:32:00.540Z,16.40
2023-10-10T01:37:09.033Z,16.40
2023-10-10T01:42:14.561Z,16.30
2023-10-10T01:47:28.233Z,16.30
2023-10-10T01:52:35.640Z,16.30
2023-10-10T01:57:40.219Z,16.30
2023-10-10T02:02:44.837Z,16.30
2023-10-10T02:07:54.932Z,16.30
2023-10-10T02:13:01.355Z,16.20
2023-10-10T02:18:06.823Z,16.20
2023-10-10T02:23:25.240Z,16.20
2023-10-10T02:28:44.758Z,16.20
2023-10-10T02:33:56.547Z,16.20
2023-10-10T02:39:20.000Z,16.20
2023-10-10T02:44:40.112Z,16.20
2023-10-10T02:49:47.615Z,16.10
2023-10-10T02:54:56.179Z,16.10
2023-10-10T03:00:16.970Z,16.10
2023-10-10T03:05:39.469Z,16.10
2023-10-10T03:10:48.471Z,16.10
2023-10-10T03:15:55.643Z,16.10
2023-10-10T03:21:14.193Z,16.10
2023-10-10T03:26:31.099Z,16.00
2023-10-10T03:31:43.362Z,16.00
2023-10-10T03:37:05.631Z,16.10
2023-10-10T03:42:28.714Z,16.00
2023-10-10T03:47:49.968Z,16.00
2023-10-10T03:53:11.500Z,16.00
2023-10-10T03:58:34.245Z,16.00
2023-10-10T04:03:55.359Z,16.00
2023-10-10T04:09:16.690Z,16.00
2023-10-10T04:14:39.445Z,15.90
2023-10-10T04:20:01.028Z,15.90
2023-10-10T04:25:22.965Z,15.90
2023-10-10T04:30:45.682Z,15.90
2023-10-10T04:36:06.829Z,15.80
2023-10-10T04:41:31.724Z,15.80
2023-10-10T04:46:54.341Z,15.80
2023-10-10T04:52:15.651Z,15.80
2023-10-10T04:57:36.894Z,15.70
2023-10-10T05:02:59.737Z,15.70
2023-10-10T05:08:21.195Z,15.70
2023-10-10T05:13:42.194Z,15.70
2023-10-10T05:19:04.557Z,15.70
2023-10-10T05:24:10.388Z,15.70
2023-10-10T05:29:14.959Z,15.70
2023-10-10T05:34:24.050Z,15.60
2023-10-10T05:39:33.614Z,15.60
2023-10-10T05:44:40.341Z,15.50
2023-10-10T05:49:45.401Z,15.50
2023-10-10T05:54:49.082Z,15.50
2023-10-10T05:59:53.153Z,15.50
2023-10-10T06:04:59.211Z,15.40
2023-10-10T06:10:06.949Z,15.40
2023-10-10T06:15:12.284Z,15.30
2023-10-10T06:20:17.662Z,15.30
2023-10-10T06:25:22.394Z,15.20
2023-10-10T06:30:27.223Z,15.20
2023-10-10T06:35:37.366Z,15.20
2023-10-10T06:40:54.030Z,15.20
2023-10-10T06:45:57.769Z,15.20
2023-10-10T06:51:02.848Z,15.20
2023-10-10T06:56:17.041Z,15.20
2023-10-10T07:01:22.505Z,15.20
2023-10-10T07:06:30.118Z,15.20
2023-10-10T07:11:33.870Z,15.20
2023-10-10T07:16:41.138Z,15.20
2023-10-10T07:21:46.308Z,15.20
2023-10-10T07:27:00.257Z,15.30
2023-10-10T07:32:17.779Z,15.30
2023-10-10T07:37:24.221Z,15.30
2023-10-10T07:42:32.271Z,15.40
2023-10-10T07:47:56.226Z,15.40
2023-10-10T07:53:05.020Z,15.50
2023-10-10T07:58:11.743Z,15.50
2023-10-10T08:03:20.629Z,15.60
2023-10-10T08:08:27.457Z,15.70
2023-10-10T08:13:33.610Z,15.80
2023-10-10T08:18:53.850Z,15.90
2023-10-10T08:23:59.370Z,15.90
2023-10-10T08:29:03.116Z,16.00
2023-10-10T08:34:10.265Z,16.10
2023-10-10T08:39:26.476Z,16.20
2023-10-10T08:44:32.435Z,16.30
2023-10-10T08:49:36.461Z,16.50
2023-10-10T08:54:44.726Z,16.70
2023-10-10T08:59:53.698Z,17.20
2023-10-10T09:04:57.777Z,17.80
2023-10-10T09:10:07.095Z,18.20
2023-10-10T09:15:18.289Z,18.60
2023-10-10T09:20:29.941Z,19.40
2023-10-10T09:25:42.931Z,20.00
2023-10-10T09:31:00.103Z,20.20
2023-10-10T09:36:10.538Z,20.40
2023-10-10T09:41:29.249Z,21.00
2023-10-10T09:47:01.220Z,21.60
2023-10-10T09:52:22.756Z,22.10
2023-10-10T09:57:28.433Z,22.40
2023-10-10T10:02:41.622Z,22.80
2023-10-10T10:08:06.439Z,22.80
2023-10-10T10:13:27.767Z,22.40
2023-10-10T10:18:45.724Z,22.20
2023-10-10T10:23:57.693Z,22.10
2023-10-10T10:29:16.638Z,22.00
2023-10-10T10:34:32.970Z,22.10
2023-10-10T10:39:38.376Z,22.10
2023-10-10T10:44:55.778Z,22.10
2023-10-10T10:49:59.950Z,22.20
2023-10-10T10:55:23.229Z,22.20
2023-10-10T11:00:58.260Z,22.30
2023-10-10T11:06:02.570Z,22.30
2023-10-10T11:11:24.393Z,22.20
2023-10-10T11:16:37.834Z,22.10
2023-10-10T11:21:48.872Z,22.20
2023-10-10T11:27:03.904Z,22.30
2023-10-10T11:32:09.365Z,22.30
2023-10-10T11:37:15.312Z,22.40
2023-10-10T11:42:34.331Z,22.50
2023-10-10T11:47:46.113Z,22.70
2023-10-10T11:52:55.238Z,22.90
2023-10-10T11:57:59.791Z,23.00
2023-10-10T12:03:06.919Z,23.10
2023-10-10T12:08:10.732Z,23.20
2023-10-10T12:13:26.841Z,23.40
2023-10-10T12:18:33.138Z,23.40
2023-10-10T12:23:37.012Z,23.50
2023-10-10T12:28:41.196Z,23.50
2023-10-10T12:33:49.567Z,23.50
2023-10-10T12:38:53.950Z,23.50
2023-10-10T12:43:57.896Z,23.50
2023-10-10T12:49:02.947Z,23.40
2023-10-10T12:54:11.143Z,23.40
2023-10-10T12:59:26.459Z,23.30
2023-10-10T13:04:33.704Z,23.30
2023-10-10T13:09:43.832Z,23.20
2023-10-10T13:14:51.973Z,23.10
2023-10-10T13:20:00.021Z,23.20
2023-10-10T13:25:10.548Z,23.20
2023-10-10T13:30:15.284Z,23.20
2023-10-10T13:35:22.303Z,23.10
2023-10-10T13:40:26.147Z,23.10
2023-10-10T13:45:30.594Z,23.10
2023-10-10T13:50:44.155Z,23.10
2023-10-10T13:55:48.568Z,23.10
2023-10-10T14:00:57.213Z,22.90
2023-10-10T14:06:05.169Z,22.80
2023-10-10T14:11:09.158Z,22.80
2023-10-10T14:16:12.862Z,22.70
2023-10-10T14:21:18.894Z,22.60
2023-10-10T14:26:28.290Z,22.50
2023-10-10T14:31:32.411Z,22.50
2023-10-10T14:36:40.384Z,22.50
2023-10-10T14:41:45.231Z,22.60
2023-10-10T14:46:52.368Z,22.50
2023-10-10T14:52:01.916Z,22.50
2023-10-10T14:57:06.030Z,22.50
2023-10-10T15:02:13.482Z,22.50
2023-10-10T15:07:18.510Z,22.40
2023-10-10T15:12:23.821Z,22.40
2023-10-10T15:17:28.372Z,22.40
2023-10-10T15:22:33.515Z,22.20
2023-10-10T15:27:37.307Z,22.20
2023-10-10T15:32:48.145Z,22.20
2023-10-10T15:37:53.783Z,22.20
2023-10-10T15:42:59.513Z,22.20
2023-10-10T15:48:03.745Z,22.10
2023-10-10T15:53:08.894Z,22.00
2023-10-10T15:58:12.499Z,22.00
2023-10-10T16:03:16.348Z,21.90
2023-10-10T16:08:23.192Z,21.80
2023-10-10T16:13:26.940Z,21.80
2023-10-10T16:18:31.083Z,21.70
2023-10-10T16:23:38.255Z,21.60
2023-10-10T16:28:42.428Z,21.50
2023-10-10T16:33:46.263Z,21.50
2023-10-10T16:38:53.286Z,21.40
2023-10-10T16:44:01.713Z,21.30
2023-10-10T16:49:06.796Z,21.20
2023-10-10T16:54:14.041Z,21.20
2023-10-10T16:59:18.047Z,21.10
2023-10-10T17:04:25.871Z,21.00
2023-10-10T17:09:36.621Z,21.00
2023-10-10T17:14:40.352Z,20.80
2023-10-10T17:19:44.099Z,20.70
2023-10-10T17:24:49.338Z,20.60
2023-10-10T17:29:53.173Z,20.50
2023-10-10T17:34:56.919Z,20.40
2023-10-10T17:40:02.618Z,20.30
2023-10-10T17:45:12.179Z,20.30
2023-10-10T17:50:18.244Z,20.20
2023-10-10T17:55:28.176Z,20.10
2023-10-10T18:00:33.199Z,20.00
2023-10-10T18:05:39.118Z,20.00
2023-10-10T18:10:45.920Z,19.90
2023-10-10T18:15:49.670Z,19.80
2023-10-10T18:20:54.734Z,19.80
2023-10-10T18:26:01.995Z,19.80
2023-10-10T18:31:05.807Z,19.70
2023-10-10T18:36:09.812Z,19.80
2023-10-10T18:41:15.414Z,19.80
2023-10-10T18:46:19.244Z,19.80
2023-10-10T18:51:23.618Z,19.80
2023-10-10T18:56:28.886Z,19.70
2023-10-10T19:01:35.637Z,19.80
2023-10-10T19:06:40.260Z,19.70
2023-10-10T19:11:46.098Z,19.70
2023-10-10T19:16:49.903Z,19.60
2023-10-10T19:21:53.940Z,19.60
2023-10-10T19:27:00.403Z,19.60
2023-10-10T19:32:04.704Z,19.60
2023-10-10T19:37:10.318Z,19.60
2023-10-10T19:42:18.870Z,19.70
2023-10-10T19:47:23.694Z,19.70
2023-10-10T19:52:27.429Z,19.70
2023-10-10T19:57:32.791Z,19.60
2023-10-10T20:02:36.856Z,19.60
2023-10-10T20:07:41.221Z,19.60
2023-10-10T20:12:48.490Z,19.60
2023-10-10T20:17:53.413Z,19.60
2023-10-10T20:23:01.108Z,19.50
2023-10-10T20:28:07.369Z,19.50
2023-10-10T20:33:16.479Z,19.50
2023-10-10T20:38:21.260Z,19.50
2023-10-10T20:43:26.564Z,19.40
2023-10-10T20:48:30.447Z,19.40
2023-10-10T20:53:34.315Z,19.40
2023-10-10T20:58:39.654Z,19.40
2023-10-10T21:03:43.700Z,19.30
2023-10-10T21:08:50.488Z,19.40
2023-10-10T21:13:55.831Z,19.30
2023-10-10T21:18:59.806Z,19.30
2023-10-10T21:24:05.918Z,19.30
2023-10-10T21:29:11.999Z,19.20
2023-10-10T21:34:15.708Z,19.10
2023-10-10T21:39:19.979Z,19.10
2023-10-10T21:44:27.073Z,19.10
2023-10-10T21:49:32.460Z,19.10
2023-10-10T21:54:36.159Z,19.00
2023-10-10T21:59:41.314Z,19.00
2023-10-10T22:04:45.630Z,19.00
2023-10-10T22:09:49.586Z,19.00
2023-10-10T22:14:54.922Z,18.90
2023-10-10T22:19:58.976Z,18.90
2023-10-10T22:25:11.812Z,18.90
2023-10-10T22:30:18.960Z,18.90
2023-10-10T22:35:27.534Z,18.80
2023-10-10T22:40:34.265Z,18.80
2023-10-10T22:45:39.694Z,18.80
2023-10-10T22:50:43.648Z,18.70
2023-10-10T22:55:47.887Z,18.70
2023-10-10T23:00:52.987Z,18.70
2023-10-10T23:05:57.599Z,18.60
2023-10-10T23:11:01.421Z,18.60
2023-10-10T23:16:06.697Z,18.60
2023-10-10T23:21:10.486Z,18.50
2023-10-10T23:26:19.662Z,18.50
2023-10-10T23:31:25.126Z,18.50
2023-10-10T23:36:29.037Z,18.50
2023-10-10T23:41:33.498Z,18.40
2023-10-10T23:46:38.774Z,18.40
2023-10-10T23:51:45.505Z,18.30
2023-10-10T23:56:50.030Z,18.40
